sensor_id;sensor_type;location;lat;lon;timestamp;P1;durP1;ratioP1;P2;durP2;ratioP2
22064;SDS011;11197;53.110;8.468;2022-08-11T00:01:47;3.92;;;2.10;;
22064;SDS011;11197;53.110;8.468;2022-08-11T00:04:18;4.03;;;1.95;;
22064;SDS011;11197;53.110;8.468;2022-08-11T00:06:49;3.45;;;2.30;;
22064;SDS011;11197;53.110;8.468;2022-08-11T00:09:17;4.60;;;2.50;;
22064;SDS011;11197;53.110;8.468;2022-08-11T00:11:50;3.58;;;2.08;;
22064;SDS011;11197;53.110;8.468;2022-08-11T00:14:24;5.32;;;2.20;;
22064;SDS011;11197;53.110;8.468;2022-08-11T00:16:59;4.70;;;2.30;;
22064;SDS011;11197;53.110;8.468;2022-08-11T00:19:37;2.50;;;2.05;;
22064;SDS011;11197;53.110;8.468;2022-08-11T00:22:23;3.47;;;2.25;;
22064;SDS011;11197;53.110;8.468;2022-08-11T00:24:49;4.63;;;2.10;;
22064;SDS011;11197;53.110;8.468;2022-08-11T00:27:16;4.30;;;2.58;;
22064;SDS011;11197;53.110;8.468;2022-08-11T00:29:52;4.07;;;2.47;;
22064;SDS011;11197;53.110;8.468;2022-08-11T00:32:19;5.68;;;2.28;;
22064;SDS011;11197;53.110;8.468;2022-08-11T00:34:46;3.03;;;2.53;;
22064;SDS011;11197;53.110;8.468;2022-08-11T00:37:20;4.28;;;2.40;;
22064;SDS011;11197;53.110;8.468;2022-08-11T00:39:49;5.07;;;2.50;;
22064;SDS011;11197;53.110;8.468;2022-08-11T00:48:44;4.78;;;2.30;;
22064;SDS011;11197;53.110;8.468;2022-08-11T01:11:33;3.90;;;2.75;;
22064;SDS011;11197;53.110;8.468;2022-08-11T01:19:45;3.30;;;2.65;;
22064;SDS011;11197;53.110;8.468;2022-08-11T01:25:40;3.70;;;2.60;;
22064;SDS011;11197;53.110;8.468;2022-08-11T01:54:16;5.75;;;3.05;;
22064;SDS011;11197;53.110;8.468;2022-08-11T02:00:09;3.80;;;2.80;;
22064;SDS011;11197;53.110;8.468;2022-08-11T02:02:46;3.97;;;2.70;;
22064;SDS011;11197;53.110;8.468;2022-08-11T02:14:06;3.63;;;2.85;;
22064;SDS011;11197;53.110;8.468;2022-08-11T02:17:18;4.95;;;2.92;;
22064;SDS011;11197;53.110;8.468;2022-08-11T02:23:22;6.63;;;3.35;;
22064;SDS011;11197;53.110;8.468;2022-08-11T02:30:03;5.78;;;3.67;;
22064;SDS011;11197;53.110;8.468;2022-08-11T02:42:40;5.28;;;3.35;;
22064;SDS011;11197;53.110;8.468;2022-08-11T02:51:38;4.78;;;3.60;;
22064;SDS011;11197;53.110;8.468;2022-08-11T02:59:54;6.15;;;3.97;;
22064;SDS011;11197;53.110;8.468;2022-08-11T03:14:21;6.18;;;3.70;;
22064;SDS011;11197;53.110;8.468;2022-08-11T03:19:57;6.78;;;4.00;;
22064;SDS011;11197;53.110;8.468;2022-08-11T03:28:00;7.60;;;3.70;;
22064;SDS011;11197;53.110;8.468;2022-08-11T03:30:41;5.32;;;3.85;;
22064;SDS011;11197;53.110;8.468;2022-08-11T03:33:33;5.07;;;3.33;;
22064;SDS011;11197;53.110;8.468;2022-08-11T03:39:15;6.35;;;4.03;;
22064;SDS011;11197;53.110;8.468;2022-08-11T03:47:33;6.65;;;4.40;;
22064;SDS011;11197;53.110;8.468;2022-08-11T03:50:29;6.13;;;4.35;;
22064;SDS011;11197;53.110;8.468;2022-08-11T03:56:34;6.20;;;4.05;;
22064;SDS011;11197;53.110;8.468;2022-08-11T04:02:18;5.45;;;3.85;;
22064;SDS011;11197;53.110;8.468;2022-08-11T04:34:57;5.90;;;3.72;;
22064;SDS011;11197;53.110;8.468;2022-08-11T04:40:26;5.82;;;3.22;;
22064;SDS011;11197;53.110;8.468;2022-08-11T04:46:11;10.50;;;3.28;;
22064;SDS011;11197;53.110;8.468;2022-08-11T05:12:54;5.75;;;3.70;;
22064;SDS011;11197;53.110;8.468;2022-08-11T05:16:07;7.10;;;3.58;;
22064;SDS011;11197;53.110;8.468;2022-08-11T05:18:53;6.95;;;3.50;;
22064;SDS011;11197;53.110;8.468;2022-08-11T05:21:38;7.15;;;4.35;;
22064;SDS011;11197;53.110;8.468;2022-08-11T05:24:34;8.25;;;4.03;;
22064;SDS011;11197;53.110;8.468;2022-08-11T05:27:28;7.85;;;4.63;;
22064;SDS011;11197;53.110;8.468;2022-08-11T05:30:26;6.97;;;4.78;;
22064;SDS011;11197;53.110;8.468;2022-08-11T05:33:14;6.63;;;4.20;;
22064;SDS011;11197;53.110;8.468;2022-08-11T05:36:10;6.88;;;4.45;;
22064;SDS011;11197;53.110;8.468;2022-08-11T05:38:48;8.95;;;5.65;;
22064;SDS011;11197;53.110;8.468;2022-08-11T05:41:40;7.53;;;5.30;;
22064;SDS011;11197;53.110;8.468;2022-08-11T05:44:25;11.07;;;5.50;;
22064;SDS011;11197;53.110;8.468;2022-08-11T05:47:19;8.80;;;5.22;;
22064;SDS011;11197;53.110;8.468;2022-08-11T05:50:10;7.50;;;5.32;;
22064;SDS011;11197;53.110;8.468;2022-08-11T05:52:57;10.77;;;6.13;;
22064;SDS011;11197;53.110;8.468;2022-08-11T05:55:43;9.40;;;5.38;;
22064;SDS011;11197;53.110;8.468;2022-08-11T05:58:33;7.97;;;5.22;;
22064;SDS011;11197;53.110;8.468;2022-08-11T06:01:01;10.73;;;5.50;;
22064;SDS011;11197;53.110;8.468;2022-08-11T06:03:29;9.85;;;5.72;;
22064;SDS011;11197;53.110;8.468;2022-08-11T06:05:57;11.35;;;6.30;;
22064;SDS011;11197;53.110;8.468;2022-08-11T06:08:30;10.18;;;5.20;;
22064;SDS011;11197;53.110;8.468;2022-08-11T06:11:03;8.52;;;4.80;;
22064;SDS011;11197;53.110;8.468;2022-08-11T06:13:30;9.68;;;5.07;;
22064;SDS011;11197;53.110;8.468;2022-08-11T06:15:57;9.10;;;5.20;;
22064;SDS011;11197;53.110;8.468;2022-08-11T06:18:24;11.70;;;5.38;;
22064;SDS011;11197;53.110;8.468;2022-08-11T06:20:51;8.52;;;4.85;;
22064;SDS011;11197;53.110;8.468;2022-08-11T06:23:20;8.48;;;5.00;;
22064;SDS011;11197;53.110;8.468;2022-08-11T06:25:49;11.00;;;4.82;;
22064;SDS011;11197;53.110;8.468;2022-08-11T06:28:16;11.25;;;4.93;;
22064;SDS011;11197;53.110;8.468;2022-08-11T06:30:45;10.90;;;5.15;;
22064;SDS011;11197;53.110;8.468;2022-08-11T06:33:18;8.98;;;5.15;;
22064;SDS011;11197;53.110;8.468;2022-08-11T06:36:05;9.68;;;5.05;;
22064;SDS011;11197;53.110;8.468;2022-08-11T06:44:19;11.73;;;4.50;;
22064;SDS011;11197;53.110;8.468;2022-08-11T06:46:52;7.60;;;4.57;;
22064;SDS011;11197;53.110;8.468;2022-08-11T06:49:21;9.70;;;4.70;;
22064;SDS011;11197;53.110;8.468;2022-08-11T06:52:14;8.50;;;4.38;;
22064;SDS011;11197;53.110;8.468;2022-08-11T06:54:51;9.35;;;4.57;;
22064;SDS011;11197;53.110;8.468;2022-08-11T06:57:32;8.43;;;4.30;;
22064;SDS011;11197;53.110;8.468;2022-08-11T07:00:18;9.48;;;4.68;;
22064;SDS011;11197;53.110;8.468;2022-08-11T07:03:07;11.68;;;4.35;;
22064;SDS011;11197;53.110;8.468;2022-08-11T07:05:43;7.63;;;4.45;;
22064;SDS011;11197;53.110;8.468;2022-08-11T07:14:52;9.30;;;4.05;;
22064;SDS011;11197;53.110;8.468;2022-08-11T07:17:49;9.57;;;4.32;;
22064;SDS011;11197;53.110;8.468;2022-08-11T07:20:37;9.07;;;4.20;;
22064;SDS011;11197;53.110;8.468;2022-08-11T07:23:23;8.93;;;4.40;;
22064;SDS011;11197;53.110;8.468;2022-08-11T07:26:08;9.10;;;5.05;;
22064;SDS011;11197;53.110;8.468;2022-08-11T07:28:54;10.32;;;4.20;;
22064;SDS011;11197;53.110;8.468;2022-08-11T07:34:41;8.15;;;3.95;;
22064;SDS011;11197;53.110;8.468;2022-08-11T07:36:44;9.65;;;4.00;;
22064;SDS011;11197;53.110;8.468;2022-08-11T07:39:18;5.80;;;3.90;;
22064;SDS011;11197;53.110;8.468;2022-08-11T07:41:47;9.90;;;3.92;;
22064;SDS011;11197;53.110;8.468;2022-08-11T07:44:16;6.50;;;3.60;;
22064;SDS011;11197;53.110;8.468;2022-08-11T07:46:46;6.38;;;3.70;;
22064;SDS011;11197;53.110;8.468;2022-08-11T07:49:34;8.38;;;4.00;;
22064;SDS011;11197;53.110;8.468;2022-08-11T07:52:22;7.18;;;3.55;;
22064;SDS011;11197;53.110;8.468;2022-08-11T07:54:57;7.18;;;3.75;;
22064;SDS011;11197;53.110;8.468;2022-08-11T07:57:29;7.43;;;3.55;;
22064;SDS011;11197;53.110;8.468;2022-08-11T08:00:15;7.85;;;3.40;;
22064;SDS011;11197;53.110;8.468;2022-08-11T08:03:01;7.13;;;3.25;;
22064;SDS011;11197;53.110;8.468;2022-08-11T08:05:47;5.78;;;3.30;;
22064;SDS011;11197;53.110;8.468;2022-08-11T08:08:33;7.28;;;3.30;;
22064;SDS011;11197;53.110;8.468;2022-08-11T08:11:20;7.50;;;3.05;;
22064;SDS011;11197;53.110;8.468;2022-08-11T08:14:06;8.60;;;3.70;;
22064;SDS011;11197;53.110;8.468;2022-08-11T08:16:52;12.02;;;3.67;;
22064;SDS011;11197;53.110;8.468;2022-08-11T08:19:38;7.13;;;3.15;;
22064;SDS011;11197;53.110;8.468;2022-08-11T08:22:09;7.38;;;3.08;;
22064;SDS011;11197;53.110;8.468;2022-08-11T08:24:39;8.65;;;3.15;;
22064;SDS011;11197;53.110;8.468;2022-08-11T08:27:06;5.97;;;3.25;;
22064;SDS011;11197;53.110;8.468;2022-08-11T08:29:36;5.38;;;3.22;;
22064;SDS011;11197;53.110;8.468;2022-08-11T08:32:39;5.13;;;2.90;;
22064;SDS011;11197;53.110;8.468;2022-08-11T08:35:08;6.75;;;3.00;;
22064;SDS011;11197;53.110;8.468;2022-08-11T08:37:35;5.90;;;3.00;;
22064;SDS011;11197;53.110;8.468;2022-08-11T08:40:03;4.22;;;2.60;;
22064;SDS011;11197;53.110;8.468;2022-08-11T08:42:34;8.52;;;2.90;;
22064;SDS011;11197;53.110;8.468;2022-08-11T08:45:10;11.70;;;2.78;;
22064;SDS011;11197;53.110;8.468;2022-08-11T08:47:40;7.68;;;3.00;;
22064;SDS011;11197;53.110;8.468;2022-08-11T08:50:11;6.45;;;2.80;;
22064;SDS011;11197;53.110;8.468;2022-08-11T08:52:41;6.88;;;2.90;;
22064;SDS011;11197;53.110;8.468;2022-08-11T08:55:17;5.30;;;2.47;;
22064;SDS011;11197;53.110;8.468;2022-08-11T08:57:45;8.75;;;2.75;;
22064;SDS011;11197;53.110;8.468;2022-08-11T09:00:15;7.28;;;2.25;;
22064;SDS011;11197;53.110;8.468;2022-08-11T09:02:43;4.88;;;2.20;;
22064;SDS011;11197;53.110;8.468;2022-08-11T09:05:10;9.00;;;2.47;;
22064;SDS011;11197;53.110;8.468;2022-08-11T09:07:37;4.10;;;2.22;;
22064;SDS011;11197;53.110;8.468;2022-08-11T09:10:04;4.10;;;2.00;;
22064;SDS011;11197;53.110;8.468;2022-08-11T09:12:33;4.63;;;1.98;;
22064;SDS011;11197;53.110;8.468;2022-08-11T09:15:00;7.03;;;2.03;;
22064;SDS011;11197;53.110;8.468;2022-08-11T09:17:32;2.72;;;1.50;;
22064;SDS011;11197;53.110;8.468;2022-08-11T09:20:05;3.95;;;1.90;;
22064;SDS011;11197;53.110;8.468;2022-08-11T09:22:35;4.75;;;1.63;;
22064;SDS011;11197;53.110;8.468;2022-08-11T09:25:21;4.63;;;1.50;;
22064;SDS011;11197;53.110;8.468;2022-08-11T09:28:11;4.07;;;1.60;;
22064;SDS011;11197;53.110;8.468;2022-08-11T09:30:48;4.68;;;1.60;;
22064;SDS011;11197;53.110;8.468;2022-08-11T09:33:19;3.90;;;1.60;;
22064;SDS011;11197;53.110;8.468;2022-08-11T09:35:47;5.80;;;1.52;;
22064;SDS011;11197;53.110;8.468;2022-08-11T09:38:16;3.45;;;1.35;;
22064;SDS011;11197;53.110;8.468;2022-08-11T09:41:03;5.72;;;1.60;;
22064;SDS011;11197;53.110;8.468;2022-08-11T09:43:32;4.60;;;1.30;;
22064;SDS011;11197;53.110;8.468;2022-08-11T09:46:23;2.83;;;1.25;;
22064;SDS011;11197;53.110;8.468;2022-08-11T09:48:53;3.97;;;1.35;;
22064;SDS011;11197;53.110;8.468;2022-08-11T09:51:23;6.50;;;1.48;;
22064;SDS011;11197;53.110;8.468;2022-08-11T09:53:54;4.93;;;1.75;;
22064;SDS011;11197;53.110;8.468;2022-08-11T09:56:22;7.35;;;1.70;;
22064;SDS011;11197;53.110;8.468;2022-08-11T09:59:08;5.00;;;1.50;;
22064;SDS011;11197;53.110;8.468;2022-08-11T10:01:40;8.88;;;1.50;;
22064;SDS011;11197;53.110;8.468;2022-08-11T10:06:49;3.60;;;1.90;;
22064;SDS011;11197;53.110;8.468;2022-08-11T10:12:10;3.63;;;1.97;;
22064;SDS011;11197;53.110;8.468;2022-08-11T10:14:43;7.47;;;2.85;;
22064;SDS011;11197;53.110;8.468;2022-08-11T10:17:29;6.95;;;2.63;;
22064;SDS011;11197;53.110;8.468;2022-08-11T10:19:58;3.80;;;2.40;;
22064;SDS011;11197;53.110;8.468;2022-08-11T10:22:27;5.63;;;2.30;;
22064;SDS011;11197;53.110;8.468;2022-08-11T10:25:14;7.45;;;2.20;;
22064;SDS011;11197;53.110;8.468;2022-08-11T10:28:02;6.22;;;2.28;;
22064;SDS011;11197;53.110;8.468;2022-08-11T10:30:28;3.75;;;2.13;;
22064;SDS011;11197;53.110;8.468;2022-08-11T10:33:13;5.72;;;2.60;;
22064;SDS011;11197;53.110;8.468;2022-08-11T10:36:01;3.35;;;2.20;;
22064;SDS011;11197;53.110;8.468;2022-08-11T10:38:30;4.88;;;2.33;;
22064;SDS011;11197;53.110;8.468;2022-08-11T10:40:57;6.30;;;2.28;;
22064;SDS011;11197;53.110;8.468;2022-08-11T10:43:42;5.18;;;1.98;;
22064;SDS011;11197;53.110;8.468;2022-08-11T10:46:09;5.30;;;2.05;;
22064;SDS011;11197;53.110;8.468;2022-08-11T10:48:55;7.45;;;2.08;;
22064;SDS011;11197;53.110;8.468;2022-08-11T10:51:23;3.90;;;2.15;;
22064;SDS011;11197;53.110;8.468;2022-08-11T10:54:09;6.40;;;2.22;;
22064;SDS011;11197;53.110;8.468;2022-08-11T10:56:55;4.20;;;1.80;;
22064;SDS011;11197;53.110;8.468;2022-08-11T10:59:40;4.22;;;1.95;;
22064;SDS011;11197;53.110;8.468;2022-08-11T11:02:12;4.50;;;1.90;;
22064;SDS011;11197;53.110;8.468;2022-08-11T11:07:21;5.82;;;1.90;;
22064;SDS011;11197;53.110;8.468;2022-08-11T11:09:55;6.78;;;1.92;;
22064;SDS011;11197;53.110;8.468;2022-08-11T11:12:24;3.07;;;1.77;;
22064;SDS011;11197;53.110;8.468;2022-08-11T11:15:23;7.63;;;1.60;;
22064;SDS011;11197;53.110;8.468;2022-08-11T11:18:14;6.95;;;2.00;;
22064;SDS011;11197;53.110;8.468;2022-08-11T11:20:59;5.47;;;1.95;;
22064;SDS011;11197;53.110;8.468;2022-08-11T11:23:35;6.38;;;1.80;;
22064;SDS011;11197;53.110;8.468;2022-08-11T11:29:18;6.72;;;1.92;;
22064;SDS011;11197;53.110;8.468;2022-08-11T11:37:28;6.53;;;1.73;;
22064;SDS011;11197;53.110;8.468;2022-08-11T11:39:57;6.20;;;1.60;;
22064;SDS011;11197;53.110;8.468;2022-08-11T11:42:24;5.15;;;1.80;;
22064;SDS011;11197;53.110;8.468;2022-08-11T11:44:51;3.33;;;1.80;;
22064;SDS011;11197;53.110;8.468;2022-08-11T11:47:17;3.55;;;1.77;;
22064;SDS011;11197;53.110;8.468;2022-08-11T11:49:47;9.30;;;1.80;;
22064;SDS011;11197;53.110;8.468;2022-08-11T11:52:15;5.95;;;1.75;;
22064;SDS011;11197;53.110;8.468;2022-08-11T11:54:45;5.80;;;2.00;;
22064;SDS011;11197;53.110;8.468;2022-08-11T11:57:15;6.60;;;1.80;;
22064;SDS011;11197;53.110;8.468;2022-08-11T12:00:05;6.28;;;1.90;;
22064;SDS011;11197;53.110;8.468;2022-08-11T12:02:52;4.18;;;1.85;;
22064;SDS011;11197;53.110;8.468;2022-08-11T12:05:22;5.82;;;1.60;;
22064;SDS011;11197;53.110;8.468;2022-08-11T12:07:49;3.90;;;1.70;;
22064;SDS011;11197;53.110;8.468;2022-08-11T12:10:36;4.82;;;1.40;;
22064;SDS011;11197;53.110;8.468;2022-08-11T12:13:04;4.38;;;1.50;;
22064;SDS011;11197;53.110;8.468;2022-08-11T12:15:51;6.38;;;1.52;;
22064;SDS011;11197;53.110;8.468;2022-08-11T12:18:18;6.28;;;1.75;;
22064;SDS011;11197;53.110;8.468;2022-08-11T12:20:44;4.80;;;1.65;;
22064;SDS011;11197;53.110;8.468;2022-08-11T12:23:11;4.85;;;1.50;;
22064;SDS011;11197;53.110;8.468;2022-08-11T12:25:57;4.80;;;1.50;;
22064;SDS011;11197;53.110;8.468;2022-08-11T12:28:42;4.15;;;1.58;;
22064;SDS011;11197;53.110;8.468;2022-08-11T12:31:09;4.15;;;1.60;;
22064;SDS011;11197;53.110;8.468;2022-08-11T12:33:37;4.00;;;1.90;;
22064;SDS011;11197;53.110;8.468;2022-08-11T12:36:07;7.78;;;1.58;;
22064;SDS011;11197;53.110;8.468;2022-08-11T12:38:39;5.47;;;1.50;;
22064;SDS011;11197;53.110;8.468;2022-08-11T12:41:08;4.90;;;1.38;;
22064;SDS011;11197;53.110;8.468;2022-08-11T12:43:53;3.08;;;1.40;;
22064;SDS011;11197;53.110;8.468;2022-08-11T12:46:38;3.25;;;1.30;;
22064;SDS011;11197;53.110;8.468;2022-08-11T12:49:11;6.80;;;1.20;;
22064;SDS011;11197;53.110;8.468;2022-08-11T12:52:01;4.65;;;1.40;;
22064;SDS011;11197;53.110;8.468;2022-08-11T12:57:49;3.95;;;1.23;;
22064;SDS011;11197;53.110;8.468;2022-08-11T13:00:18;3.53;;;1.30;;
22064;SDS011;11197;53.110;8.468;2022-08-11T13:03:06;3.72;;;1.60;;
22064;SDS011;11197;53.110;8.468;2022-08-11T13:05:53;2.65;;;1.27;;
22064;SDS011;11197;53.110;8.468;2022-08-11T13:08:22;3.28;;;1.42;;
22064;SDS011;11197;53.110;8.468;2022-08-11T13:10:50;2.75;;;1.30;;
22064;SDS011;11197;53.110;8.468;2022-08-11T13:13:37;4.20;;;1.20;;
22064;SDS011;11197;53.110;8.468;2022-08-11T13:18:34;1.58;;;1.05;;
22064;SDS011;11197;53.110;8.468;2022-08-11T13:21:02;1.92;;;1.02;;
22064;SDS011;11197;53.110;8.468;2022-08-11T13:23:28;3.03;;;1.20;;
22064;SDS011;11197;53.110;8.468;2022-08-11T13:25:55;3.25;;;1.20;;
22064;SDS011;11197;53.110;8.468;2022-08-11T13:28:23;3.20;;;1.02;;
22064;SDS011;11197;53.110;8.468;2022-08-11T13:30:49;3.88;;;1.20;;
22064;SDS011;11197;53.110;8.468;2022-08-11T13:33:42;2.25;;;1.17;;
22064;SDS011;11197;53.110;8.468;2022-08-11T13:36:14;2.77;;;1.33;;
22064;SDS011;11197;53.110;8.468;2022-08-11T13:38:44;2.22;;;1.30;;
22064;SDS011;11197;53.110;8.468;2022-08-11T13:41:12;2.30;;;1.20;;
22064;SDS011;11197;53.110;8.468;2022-08-11T13:43:57;3.58;;;1.30;;
22064;SDS011;11197;53.110;8.468;2022-08-11T13:46:24;2.75;;;1.30;;
22064;SDS011;11197;53.110;8.468;2022-08-11T13:48:52;4.75;;;1.40;;
22064;SDS011;11197;53.110;8.468;2022-08-11T13:51:21;4.10;;;1.15;;
22064;SDS011;11197;53.110;8.468;2022-08-11T13:57:05;3.97;;;1.10;;
22064;SDS011;11197;53.110;8.468;2022-08-11T13:59:33;3.35;;;1.10;;
22064;SDS011;11197;53.110;8.468;2022-08-11T14:02:05;3.35;;;1.10;;
22064;SDS011;11197;53.110;8.468;2022-08-11T14:04:41;3.10;;;1.10;;
22064;SDS011;11197;53.110;8.468;2022-08-11T14:07:08;3.22;;;1.30;;
22064;SDS011;11197;53.110;8.468;2022-08-11T14:09:39;2.90;;;1.35;;
22064;SDS011;11197;53.110;8.468;2022-08-11T14:12:08;3.20;;;1.13;;
22064;SDS011;11197;53.110;8.468;2022-08-11T14:15:04;3.42;;;1.20;;
22064;SDS011;11197;53.110;8.468;2022-08-11T14:17:37;3.40;;;1.25;;
22064;SDS011;11197;53.110;8.468;2022-08-11T14:20:07;3.40;;;1.13;;
22064;SDS011;11197;53.110;8.468;2022-08-11T14:22:36;2.58;;;1.10;;
22064;SDS011;11197;53.110;8.468;2022-08-11T14:25:05;4.03;;;1.30;;
22064;SDS011;11197;53.110;8.468;2022-08-11T14:27:32;3.80;;;1.02;;
22064;SDS011;11197;53.110;8.468;2022-08-11T14:29:58;2.83;;;1.30;;
22064;SDS011;11197;53.110;8.468;2022-08-11T14:32:24;3.42;;;1.10;;
22064;SDS011;11197;53.110;8.468;2022-08-11T14:34:52;4.45;;;1.15;;
22064;SDS011;11197;53.110;8.468;2022-08-11T14:37:19;1.95;;;0.90;;
22064;SDS011;11197;53.110;8.468;2022-08-11T14:39:50;2.90;;;1.02;;
22064;SDS011;11197;53.110;8.468;2022-08-11T14:42:22;2.63;;;1.17;;
22064;SDS011;11197;53.110;8.468;2022-08-11T14:45:13;2.55;;;0.98;;
22064;SDS011;11197;53.110;8.468;2022-08-11T14:48:01;2.15;;;1.00;;
22064;SDS011;11197;53.110;8.468;2022-08-11T14:52:58;2.50;;;1.20;;
22064;SDS011;11197;53.110;8.468;2022-08-11T14:55:31;2.17;;;1.20;;
22064;SDS011;11197;53.110;8.468;2022-08-11T14:58:21;4.20;;;1.13;;
22064;SDS011;11197;53.110;8.468;2022-08-11T15:00:53;2.45;;;1.20;;
22064;SDS011;11197;53.110;8.468;2022-08-11T15:03:27;2.63;;;1.30;;
22064;SDS011;11197;53.110;8.468;2022-08-11T15:05:58;1.90;;;1.20;;
22064;SDS011;11197;53.110;8.468;2022-08-11T15:08:33;3.55;;;1.30;;
22064;SDS011;11197;53.110;8.468;2022-08-11T15:11:20;5.18;;;1.50;;
22064;SDS011;11197;53.110;8.468;2022-08-11T15:14:12;4.13;;;1.40;;
22064;SDS011;11197;53.110;8.468;2022-08-11T15:16:40;2.22;;;1.10;;
22064;SDS011;11197;53.110;8.468;2022-08-11T15:19:29;3.90;;;1.20;;
22064;SDS011;11197;53.110;8.468;2022-08-11T15:21:57;2.63;;;1.10;;
22064;SDS011;11197;53.110;8.468;2022-08-11T15:24:42;1.63;;;1.10;;
22064;SDS011;11197;53.110;8.468;2022-08-11T15:27:10;4.70;;;1.30;;
22064;SDS011;11197;53.110;8.468;2022-08-11T15:29:57;2.00;;;1.20;;
22064;SDS011;11197;53.110;8.468;2022-08-11T15:32:45;1.85;;;1.25;;
22064;SDS011;11197;53.110;8.468;2022-08-11T15:35:30;4.25;;;1.25;;
22064;SDS011;11197;53.110;8.468;2022-08-11T15:38:19;2.33;;;1.20;;
22064;SDS011;11197;53.110;8.468;2022-08-11T15:40:47;3.15;;;1.20;;
22064;SDS011;11197;53.110;8.468;2022-08-11T15:43:41;3.60;;;1.20;;
22064;SDS011;11197;53.110;8.468;2022-08-11T15:46:34;3.13;;;1.25;;
22064;SDS011;11197;53.110;8.468;2022-08-11T15:51:45;3.60;;;1.35;;
22064;SDS011;11197;53.110;8.468;2022-08-11T15:54:16;2.03;;;1.30;;
22064;SDS011;11197;53.110;8.468;2022-08-11T15:56:47;5.10;;;1.40;;
22064;SDS011;11197;53.110;8.468;2022-08-11T15:59:16;3.50;;;1.40;;
22064;SDS011;11197;53.110;8.468;2022-08-11T16:02:03;5.38;;;1.48;;
22064;SDS011;11197;53.110;8.468;2022-08-11T16:04:52;2.92;;;1.40;;
22064;SDS011;11197;53.110;8.468;2022-08-11T16:07:20;2.60;;;1.20;;
22064;SDS011;11197;53.110;8.468;2022-08-11T16:10:10;5.10;;;1.50;;
22064;SDS011;11197;53.110;8.468;2022-08-11T16:15:30;3.47;;;1.50;;
22064;SDS011;11197;53.110;8.468;2022-08-11T16:18:18;4.82;;;1.50;;
22064;SDS011;11197;53.110;8.468;2022-08-11T16:20:46;2.90;;;1.50;;
22064;SDS011;11197;53.110;8.468;2022-08-11T16:23:16;4.30;;;1.60;;
22064;SDS011;11197;53.110;8.468;2022-08-11T16:25:43;6.88;;;1.70;;
22064;SDS011;11197;53.110;8.468;2022-08-11T16:28:11;3.08;;;1.50;;
22064;SDS011;11197;53.110;8.468;2022-08-11T16:30:40;6.55;;;1.60;;
22064;SDS011;11197;53.110;8.468;2022-08-11T16:33:08;4.97;;;1.55;;
22064;SDS011;11197;53.110;8.468;2022-08-11T16:35:37;2.60;;;1.30;;
22064;SDS011;11197;53.110;8.468;2022-08-11T16:38:24;4.35;;;1.60;;
22064;SDS011;11197;53.110;8.468;2022-08-11T16:43:44;5.35;;;1.50;;
22064;SDS011;11197;53.110;8.468;2022-08-11T16:46:30;5.10;;;1.40;;
22064;SDS011;11197;53.110;8.468;2022-08-11T16:49:20;3.70;;;1.35;;
22064;SDS011;11197;53.110;8.468;2022-08-11T16:51:50;3.35;;;1.38;;
22064;SDS011;11197;53.110;8.468;2022-08-11T16:54:17;3.85;;;1.48;;
22064;SDS011;11197;53.110;8.468;2022-08-11T16:56:50;3.28;;;1.58;;
22064;SDS011;11197;53.110;8.468;2022-08-11T16:59:35;5.30;;;1.60;;
22064;SDS011;11197;53.110;8.468;2022-08-11T17:02:06;3.72;;;1.30;;
22064;SDS011;11197;53.110;8.468;2022-08-11T17:04:42;4.45;;;1.48;;
22064;SDS011;11197;53.110;8.468;2022-08-11T17:07:35;3.40;;;1.23;;
22064;SDS011;11197;53.110;8.468;2022-08-11T17:10:34;7.68;;;1.55;;
22064;SDS011;11197;53.110;8.468;2022-08-11T17:16:09;6.18;;;1.65;;
22064;SDS011;11197;53.110;8.468;2022-08-11T17:18:39;2.70;;;1.40;;
22064;SDS011;11197;53.110;8.468;2022-08-11T17:21:10;5.20;;;1.33;;
22064;SDS011;11197;53.110;8.468;2022-08-11T17:23:46;2.92;;;1.50;;
22064;SDS011;11197;53.110;8.468;2022-08-11T17:27:03;2.97;;;1.60;;
22064;SDS011;11197;53.110;8.468;2022-08-11T17:29:24;4.82;;;1.50;;
22064;SDS011;11197;53.110;8.468;2022-08-11T17:32:03;2.55;;;1.40;;
22064;SDS011;11197;53.110;8.468;2022-08-11T17:34:50;3.30;;;1.63;;
22064;SDS011;11197;53.110;8.468;2022-08-11T17:37:38;3.10;;;1.35;;
22064;SDS011;11197;53.110;8.468;2022-08-11T17:40:09;4.88;;;1.50;;
22064;SDS011;11197;53.110;8.468;2022-08-11T17:42:36;4.22;;;1.30;;
22064;SDS011;11197;53.110;8.468;2022-08-11T17:45:22;3.63;;;1.65;;
22064;SDS011;11197;53.110;8.468;2022-08-11T17:48:08;3.55;;;1.40;;
22064;SDS011;11197;53.110;8.468;2022-08-11T17:51:32;3.15;;;1.30;;
22064;SDS011;11197;53.110;8.468;2022-08-11T17:54:04;3.47;;;1.33;;
22064;SDS011;11197;53.110;8.468;2022-08-11T17:57:00;2.45;;;1.40;;
22064;SDS011;11197;53.110;8.468;2022-08-11T17:59:47;2.50;;;1.25;;
22064;SDS011;11197;53.110;8.468;2022-08-11T18:02:24;2.80;;;1.35;;
22064;SDS011;11197;53.110;8.468;2022-08-11T18:05:17;5.68;;;1.40;;
22064;SDS011;11197;53.110;8.468;2022-08-11T18:07:45;4.28;;;1.50;;
22064;SDS011;11197;53.110;8.468;2022-08-11T18:10:32;4.10;;;1.70;;
22064;SDS011;11197;53.110;8.468;2022-08-11T18:13:22;2.85;;;1.63;;
22064;SDS011;11197;53.110;8.468;2022-08-11T18:16:08;2.85;;;1.30;;
22064;SDS011;11197;53.110;8.468;2022-08-11T18:18:54;3.78;;;1.45;;
22064;SDS011;11197;53.110;8.468;2022-08-11T18:21:41;3.55;;;1.40;;
22064;SDS011;11197;53.110;8.468;2022-08-11T18:24:28;3.38;;;1.60;;
22064;SDS011;11197;53.110;8.468;2022-08-11T18:27:21;3.10;;;1.40;;
22064;SDS011;11197;53.110;8.468;2022-08-11T18:30:10;2.83;;;1.50;;
22064;SDS011;11197;53.110;8.468;2022-08-11T18:32:57;5.13;;;1.58;;
22064;SDS011;11197;53.110;8.468;2022-08-11T18:35:46;3.50;;;1.52;;
22064;SDS011;11197;53.110;8.468;2022-08-11T18:38:37;4.25;;;1.60;;
22064;SDS011;11197;53.110;8.468;2022-08-11T18:41:24;3.13;;;1.60;;
22064;SDS011;11197;53.110;8.468;2022-08-11T18:44:11;6.10;;;1.60;;
22064;SDS011;11197;53.110;8.468;2022-08-11T18:46:58;3.10;;;1.65;;
22064;SDS011;11197;53.110;8.468;2022-08-11T18:49:48;3.55;;;1.90;;
22064;SDS011;11197;53.110;8.468;2022-08-11T18:52:35;3.70;;;1.70;;
22064;SDS011;11197;53.110;8.468;2022-08-11T18:55:22;4.43;;;1.90;;
22064;SDS011;11197;53.110;8.468;2022-08-11T18:58:08;3.75;;;1.80;;
22064;SDS011;11197;53.110;8.468;2022-08-11T19:00:55;4.45;;;2.00;;
22064;SDS011;11197;53.110;8.468;2022-08-11T19:03:43;4.15;;;2.05;;
22064;SDS011;11197;53.110;8.468;2022-08-11T19:06:34;2.08;;;1.70;;
22064;SDS011;11197;53.110;8.468;2022-08-11T19:09:21;3.20;;;1.88;;
22064;SDS011;11197;53.110;8.468;2022-08-11T19:12:07;3.65;;;1.98;;
22064;SDS011;11197;53.110;8.468;2022-08-11T19:14:54;4.65;;;1.90;;
22064;SDS011;11197;53.110;8.468;2022-08-11T19:17:40;7.03;;;2.20;;
22064;SDS011;11197;53.110;8.468;2022-08-11T19:20:29;3.28;;;1.70;;
22064;SDS011;11197;53.110;8.468;2022-08-11T19:23:16;4.03;;;1.75;;
22064;SDS011;11197;53.110;8.468;2022-08-11T19:26:08;5.22;;;1.83;;
22064;SDS011;11197;53.110;8.468;2022-08-11T19:28:53;3.38;;;1.75;;
22064;SDS011;11197;53.110;8.468;2022-08-11T19:31:38;3.95;;;2.00;;
22064;SDS011;11197;53.110;8.468;2022-08-11T19:34:24;5.43;;;1.90;;
22064;SDS011;11197;53.110;8.468;2022-08-11T19:37:10;6.15;;;1.85;;
22064;SDS011;11197;53.110;8.468;2022-08-11T19:40:14;5.00;;;1.73;;
22064;SDS011;11197;53.110;8.468;2022-08-11T19:42:59;4.65;;;1.80;;
22064;SDS011;11197;53.110;8.468;2022-08-11T19:45:47;3.85;;;1.60;;
22064;SDS011;11197;53.110;8.468;2022-08-11T19:48:33;2.85;;;1.70;;
22064;SDS011;11197;53.110;8.468;2022-08-11T19:51:20;2.80;;;1.80;;
22064;SDS011;11197;53.110;8.468;2022-08-11T19:54:04;4.80;;;2.03;;
22064;SDS011;11197;53.110;8.468;2022-08-11T19:56:50;3.50;;;1.95;;
22064;SDS011;11197;53.110;8.468;2022-08-11T19:59:35;4.15;;;1.90;;
22064;SDS011;11197;53.110;8.468;2022-08-11T20:02:21;2.97;;;2.10;;
22064;SDS011;11197;53.110;8.468;2022-08-11T20:05:06;5.47;;;1.90;;
22064;SDS011;11197;53.110;8.468;2022-08-11T20:07:53;5.90;;;2.10;;